Time;durP1;ratioP1;P1;durP2;ratioP2;P2;SDS_P1;SDS_P2;PMS_P1;PMS_P2;Temp;Humidity;BMP_temperature;BMP_pressure;BME280_temperature;BME280_humidity;BME280_pressure;Samples;Min_cycle;Max_cycle;Signal;HPM_P1;HPM_P2
2022/11/29 00:01:34;;;;;;;27.67;18.63;;;5.40;99.90;;;;;;4844252;29;20251;-58
2022/11/29 00:04:04;;;;;;;26.87;18.43;;;5.40;99.90;;;;;;4845566;29;20236;-59
2022/11/29 00:06:34;;;;;;;24.37;17.67;;;5.30;99.90;;;;;;4845479;29;20283;-58
2022/11/29 00:09:06;;;;;;;28.27;19.20;;;5.40;99.90;;;;;;4845432;29;20242;-58
2022/11/29 00:14:24;;;;;;;27.03;19.70;;;5.30;99.90;;;;;;4846244;29;20233;-58
2022/11/29 00:16:54;;;;;;;24.70;18.50;;;5.30;99.90;;;;;;4845349;29;20495;-58
2022/11/29 00:19:23;;;;;;;28.37;19.90;;;5.40;99.90;;;;;;4845544;29;20475;-59
2022/11/29 00:21:51;;;;;;;21.97;16.17;;;5.30;99.90;;;;;;4845261;29;20236;-59
2022/11/29 00:24:20;;;;;;;24.17;16.33;;;5.30;99.90;;;;;;4845304;29;20235;-59
2022/11/29 00:26:48;;;;;;;32.50;20.77;;;5.30;99.90;;;;;;4845653;29;20236;-58
2022/11/29 00:29:17;;;;;;;27.53;19.40;;;5.30;99.90;;;;;;4845833;29;20600;-58
2022/11/29 00:31:45;;;;;;;27.57;19.50;;;5.30;99.90;;;;;;4845022;29;20546;-59
2022/11/29 00:34:13;;;;;;;25.77;18.10;;;5.30;99.90;;;;;;4845219;29;20238;-58
2022/11/29 00:36:42;;;;;;;27.50;19.70;;;5.30;99.90;;;;;;4845115;29;20503;-58
2022/11/29 00:39:11;;;;;;;31.67;20.07;;;5.30;99.90;;;;;;4845731;29;20877;-59
2022/11/29 00:41:39;;;;;;;26.67;18.47;;;5.30;99.90;;;;;;4844720;29;20480;-58
2022/11/29 00:44:08;;;;;;;25.97;18.60;;;5.30;99.90;;;;;;4844523;29;20324;-59
2022/11/29 00:46:42;;;;;;;27.47;19.43;;;5.20;99.90;;;;;;4844864;29;20480;-59
2022/11/29 00:49:10;;;;;;;26.77;18.70;;;5.30;99.90;;;;;;4847629;29;20230;-59
2022/11/29 00:51:38;;;;;;;25.37;17.57;;;5.30;99.90;;;;;;4848144;29;20618;-59
2022/11/29 00:54:07;;;;;;;28.43;18.23;;;5.30;99.90;;;;;;4848491;29;20496;-58
2022/11/29 00:56:35;;;;;;;27.63;18.93;;;5.30;99.90;;;;;;4848175;29;20508;-58
2022/11/29 00:59:04;;;;;;;28.20;19.00;;;5.30;99.90;;;;;;4848208;29;20476;-59
2022/11/29 01:01:32;;;;;;;28.63;19.50;;;5.30;99.90;;;;;;4847759;29;20494;-58
2022/11/29 01:04:00;;;;;;;26.90;19.77;;;5.20;99.90;;;;;;4848039;29;20490;-59
2022/11/29 01:06:28;;;;;;;27.10;20.13;;;5.20;99.90;;;;;;4848310;29;20476;-58
2022/11/29 01:08:56;;;;;;;29.27;19.57;;;5.20;99.90;;;;;;4848695;29;20490;-59
2022/11/29 01:11:27;;;;;;;24.17;17.47;;;5.10;99.90;;;;;;4848888;29;20483;-59
2022/11/29 01:13:57;;;;;;;26.33;19.37;;;5.20;99.90;;;;;;4847882;29;20541;-59
2022/11/29 01:16:25;;;;;;;28.23;20.13;;;5.30;99.90;;;;;;4847755;29;20838;-58
2022/11/29 01:18:53;;;;;;;28.30;19.87;;;5.30;99.90;;;;;;4848387;29;20479;-59
2022/11/29 01:21:23;;;;;;;26.13;19.27;;;5.30;99.90;;;;;;4848479;29;20472;-58
2022/11/29 01:23:53;;;;;;;29.93;19.63;;;5.20;99.90;;;;;;4847785;29;20291;-59
2022/11/29 01:26:23;;;;;;;27.10;18.20;;;5.20;99.90;;;;;;4848383;29;20507;-58
2022/11/29 01:28:54;;;;;;;29.57;20.90;;;5.20;99.90;;;;;;4848702;29;20512;-58
2022/11/29 01:31:24;;;;;;;28.17;20.23;;;5.20;99.90;;;;;;4848127;29;20525;-58
2022/11/29 01:33:54;;;;;;;26.30;19.43;;;5.20;99.90;;;;;;4848313;29;20852;-58
2022/11/29 01:36:23;;;;;;;31.43;20.67;;;5.10;99.90;;;;;;4848081;29;20507;-59
2022/11/29 01:38:51;;;;;;;31.00;21.00;;;5.20;99.90;;;;;;4848185;29;20487;-58
2022/11/29 01:41:21;;;;;;;29.33;20.23;;;5.10;99.90;;;;;;4847632;29;20488;-59
2022/11/29 01:44:00;;;;;;;28.90;21.07;;;5.10;99.90;;;;;;4848245;29;20519;-59
2022/11/29 01:46:30;;;;;;;28.33;20.23;;;5.10;99.90;;;;;;4847506;29;20240;-58
2022/11/29 01:49:04;;;;;;;33.00;22.20;;;5.20;99.90;;;;;;4848226;29;20554;-58
2022/11/29 01:51:34;;;;;;;27.60;19.57;;;5.10;99.90;;;;;;4847122;29;20841;-59
2022/11/29 01:54:02;;;;;;;26.53;18.70;;;5.20;99.90;;;;;;4847163;29;20476;-59
2022/11/29 01:56:33;;;;;;;30.90;20.97;;;5.20;99.90;;;;;;4847514;29;20499;-59
2022/11/29 01:59:05;;;;;;;29.47;20.00;;;5.10;99.90;;;;;;4847392;29;20829;-59
2022/11/29 02:01:34;;;;;;;31.33;21.00;;;5.20;99.90;;;;;;4847211;29;20993;-58
2022/11/29 02:04:03;;;;;;;29.47;20.27;;;5.10;99.90;;;;;;4847801;29;20483;-59
2022/11/29 02:06:31;;;;;;;33.70;21.20;;;5.20;99.90;;;;;;4847030;29;20488;-59
2022/11/29 02:08:59;;;;;;;28.40;19.70;;;5.20;99.90;;;;;;4847444;29;20484;-59
2022/11/29 02:11:50;;;;;;;30.43;20.90;;;5.20;99.90;;;;;;4847321;29;20239;-57
2022/11/29 02:14:36;;;;;;;29.73;21.33;;;5.20;99.90;;;;;;4846938;29;20486;-58
2022/11/29 02:17:13;;;;;;;30.33;21.53;;;5.10;99.90;;;;;;4846475;29;20499;-59
2022/11/29 02:20:05;;;;;;;28.43;20.07;;;5.10;99.90;;;;;;4846792;29;20978;-59
2022/11/29 02:22:41;;;;;;;25.43;19.10;;;5.30;99.90;;;;;;4847949;29;20481;-58
2022/11/29 02:25:23;;;;;;;31.07;20.97;;;5.20;99.90;;;;;;4847469;29;20861;-59
2022/11/29 02:28:14;;;;;;;34.10;21.80;;;5.20;99.90;;;;;;4846252;29;20471;-59
2022/11/29 02:31:04;;;;;;;29.63;19.97;;;5.20;99.90;;;;;;4844270;29;21003;-58
2022/11/29 02:33:57;;;;;;;33.70;22.43;;;5.10;99.90;;;;;;4846660;29;20479;-58
2022/11/29 02:36:55;;;;;;;32.63;22.63;;;5.20;99.90;;;;;;4846171;29;20500;-58
2022/11/29 02:39:39;;;;;;;34.00;22.93;;;5.20;99.90;;;;;;4846521;29;20468;-59
2022/11/29 02:42:48;;;;;;;34.37;24.07;;;5.20;99.90;;;;;;4846578;29;20545;-58
2022/11/29 02:45:38;;;;;;;34.37;23.50;;;5.20;99.90;;;;;;4846137;29;20480;-59
2022/11/29 02:48:22;;;;;;;36.90;24.67;;;5.20;99.90;;;;;;4846143;29;20468;-58
2022/11/29 02:50:58;;;;;;;41.37;24.10;;;5.10;99.90;;;;;;4845616;29;20479;-58
2022/11/29 02:53:32;;;;;;;33.87;22.13;;;5.10;99.90;;;;;;4845529;29;20972;-59
2022/11/29 02:56:10;;;;;;;39.70;26.37;;;5.10;99.90;;;;;;4846414;29;20290;-59
2022/11/29 02:58:45;;;;;;;36.50;24.83;;;5.00;99.90;;;;;;4845125;29;20472;-59
2022/11/29 03:01:18;;;;;;;37.97;25.17;;;5.10;99.90;;;;;;4844708;29;20490;-59
2022/11/29 03:03:54;;;;;;;36.40;24.93;;;5.10;99.90;;;;;;4844853;29;20548;-58
2022/11/29 03:06:32;;;;;;;37.20;25.10;;;5.10;99.90;;;;;;4845663;29;20484;-58
2022/11/29 03:09:07;;;;;;;39.13;26.37;;;5.00;99.90;;;;;;4845657;29;20547;-59
2022/11/29 03:11:45;;;;;;;42.10;26.70;;;5.00;99.90;;;;;;4845406;29;20241;-58
2022/11/29 03:14:23;;;;;;;40.47;27.30;;;5.00;99.90;;;;;;4845569;29;20480;-59
2022/11/29 03:16:59;;;;;;;43.03;27.03;;;5.00;99.90;;;;;;4845673;29;20645;-59
2022/11/29 03:19:40;;;;;;;42.70;27.13;;;5.00;99.90;;;;;;4845666;29;20476;-58
2022/11/29 03:22:19;;;;;;;41.97;27.63;;;5.00;99.90;;;;;;4845096;29;20986;-58
2022/11/29 03:24:54;;;;;;;39.97;27.10;;;5.00;99.90;;;;;;4845663;29;20482;-58
2022/11/29 03:27:30;;;;;;;44.20;28.13;;;4.90;99.90;;;;;;4846297;29;20476;-58
2022/11/29 03:30:02;;;;;;;41.53;27.43;;;4.90;99.90;;;;;;4845529;29;20487;-59
2022/11/29 03:32:38;;;;;;;42.13;26.87;;;4.90;99.90;;;;;;4845370;29;20731;-58
2022/11/29 03:35:12;;;;;;;43.10;27.80;;;4.90;99.90;;;;;;4846065;29;20494;-58
2022/11/29 03:37:50;;;;;;;38.60;26.30;;;4.90;99.90;;;;;;4846047;29;20833;-58
2022/11/29 03:40:21;;;;;;;40.60;26.77;;;4.90;99.90;;;;;;4831688;29;20231;-58
2022/11/29 03:42:56;;;;;;;39.20;27.50;;;4.80;99.90;;;;;;4830122;29;20247;-59
2022/11/29 03:45:29;;;;;;;44.97;28.10;;;5.00;99.90;;;;;;4837953;29;20478;-57
2022/11/29 03:48:03;;;;;;;44.83;28.63;;;4.90;99.90;;;;;;4846365;29;20834;-59
2022/11/29 03:50:35;;;;;;;42.97;27.97;;;4.90;99.90;;;;;;4845499;29;20238;-58
2022/11/29 03:53:14;;;;;;;42.53;28.37;;;4.80;99.90;;;;;;4845564;29;20491;-59
2022/11/29 03:55:50;;;;;;;41.67;27.30;;;4.90;99.90;;;;;;4844147;29;20469;-59
2022/11/29 03:58:35;;;;;;;42.90;27.53;;;4.90;99.90;;;;;;4838488;29;20492;-58
2022/11/29 04:01:33;;;;;;;40.47;27.20;;;4.90;99.90;;;;;;4844993;29;20483;-59
2022/11/29 04:04:24;;;;;;;40.87;27.43;;;4.90;99.90;;;;;;4845337;29;20241;-59
2022/11/29 04:07:06;;;;;;;38.53;25.57;;;4.90;99.90;;;;;;4845364;29;20486;-59
2022/11/29 04:09:52;;;;;;;49.57;30.13;;;4.90;99.90;;;;;;4845515;29;20540;-58
2022/11/29 04:13:05;;;;;;;46.37;29.13;;;4.90;99.90;;;;;;4845823;29;20471;-58
2022/11/29 04:16:20;;;;;;;44.20;27.37;;;4.90;99.90;;;;;;4827072;29;20516;-58
2022/11/29 04:19:19;;;;;;;40.83;28.30;;;4.80;99.90;;;;;;4845245;29;20251;-58
2022/11/29 04:22:14;;;;;;;48.63;28.83;;;4.90;99.90;;;;;;4824533;29;20490;-59
2022/11/29 04:25:03;;;;;;;47.07;29.47;;;4.90;99.90;;;;;;4848998;29;20472;-58
2022/11/29 04:27:53;;;;;;;45.90;29.03;;;4.90;99.90;;;;;;4843470;29;20464;-59
2022/11/29 04:30:22;;;;;;;50.30;32.20;;;4.90;99.90;;;;;;4847978;29;20244;-58
2022/11/29 04:33:25;;;;;;;49.93;31.57;;;4.80;99.90;;;;;;4846982;29;20491;-59
2022/11/29 04:36:21;;;;;;;46.60;30.50;;;4.80;99.90;;;;;;4828517;29;20479;-58
2022/11/29 04:39:15;;;;;;;51.80;31.67;;;4.80;99.90;;;;;;4827830;29;20508;-58
2022/11/29 04:42:25;;;;;;;52.00;31.87;;;4.80;99.90;;;;;;4827640;29;20493;-58
2022/11/29 04:45:29;;;;;;;52.80;31.73;;;4.80;99.90;;;;;;4828585;29;20255;-58
2022/11/29 04:48:16;;;;;;;51.80;33.10;;;4.90;99.90;;;;;;4845967;29;20476;-58
2022/11/29 04:50:56;;;;;;;54.90;31.70;;;4.90;99.90;;;;;;4836395;29;20479;-58
2022/11/29 04:53:47;;;;;;;52.90;32.13;;;4.90;99.90;;;;;;4846979;29;20231;-59
2022/11/29 04:56:23;;;;;;;51.43;32.20;;;4.90;99.90;;;;;;4847019;29;20487;-58
2022/11/29 04:58:59;;;;;;;53.90;33.17;;;4.90;99.90;;;;;;4847035;29;20501;-58
2022/11/29 05:01:35;;;;;;;55.07;33.87;;;4.90;99.90;;;;;;4846208;29;20250;-58
2022/11/29 05:04:13;;;;;;;47.13;29.23;;;5.00;99.90;;;;;;4846847;29;20518;-59
2022/11/29 05:06:49;;;;;;;55.17;33.77;;;5.00;99.90;;;;;;4847109;29;20479;-59
2022/11/29 05:09:26;;;;;;;60.47;35.47;;;4.90;99.90;;;;;;4847203;29;20233;-58
2022/11/29 05:12:03;;;;;;;55.33;33.33;;;4.90;99.90;;;;;;4846564;29;20531;-59
2022/11/29 05:14:50;;;;;;;58.67;34.77;;;4.80;99.90;;;;;;4845853;29;20881;-58
2022/11/29 05:17:31;;;;;;;58.07;34.03;;;4.80;99.90;;;;;;4840132;29;21149;-59
2022/11/29 05:20:10;;;;;;;53.97;34.00;;;4.90;99.90;;;;;;4847062;29;20479;-58
2022/11/29 05:22:48;;;;;;;60.10;34.43;;;4.90;99.90;;;;;;4846688;29;20475;-59
2022/11/29 05:25:34;;;;;;;58.77;34.47;;;4.90;99.90;;;;;;4846329;29;20476;-58
2022/11/29 05:28:11;;;;;;;59.83;35.00;;;4.80;99.90;;;;;;4846249;29;20484;-59
2022/11/29 05:31:03;;;;;;;58.60;33.80;;;4.80;99.90;;;;;;4845898;29;20535;-58
2022/11/29 05:33:51;;;;;;;55.00;33.60;;;4.80;99.90;;;;;;4845416;29;20476;-59
2022/11/29 05:36:24;;;;;;;59.53;33.77;;;5.00;99.90;;;;;;4845953;29;20487;-58
2022/11/29 05:39:07;;;;;;;61.00;34.93;;;5.00;99.90;;;;;;4846280;29;20488;-58
2022/11/29 05:42:01;;;;;;;58.57;36.57;;;5.10;99.90;;;;;;4846924;29;20479;-59
2022/11/29 05:44:35;;;;;;;55.43;32.73;;;5.00;99.90;;;;;;4841951;29;20488;-58
2022/11/29 05:47:08;;;;;;;58.60;33.67;;;5.00;99.90;;;;;;4844822;29;20485;-58
2022/11/29 05:49:43;;;;;;;65.13;36.70;;;5.10;99.90;;;;;;4845333;29;20490;-58
2022/11/29 05:52:24;;;;;;;61.20;35.13;;;5.00;99.90;;;;;;4838476;29;20237;-58
2022/11/29 05:55:09;;;;;;;61.77;34.77;;;5.00;99.90;;;;;;4846287;29;20513;-59
2022/11/29 05:57:43;;;;;;;62.03;34.93;;;4.90;99.90;;;;;;4846225;29;20536;-59
2022/11/29 06:00:15;;;;;;;68.57;37.07;;;4.90;99.90;;;;;;4845565;29;20484;-58
2022/11/29 06:02:58;;;;;;;64.03;36.40;;;5.00;99.90;;;;;;4839055;29;20480;-59
2022/11/29 06:05:35;;;;;;;58.70;36.00;;;5.00;99.90;;;;;;4828160;29;20491;-58
2022/11/29 06:08:08;;;;;;;62.93;37.03;;;4.90;99.90;;;;;;4836927;29;20568;-58
2022/11/29 06:10:39;;;;;;;65.90;37.03;;;4.90;99.90;;;;;;4845782;29;20514;-58
2022/11/29 06:13:17;;;;;;;62.27;32.40;;;4.90;99.90;;;;;;4840126;29;20587;-59
2022/11/29 06:16:06;;;;;;;67.83;36.67;;;5.00;99.90;;;;;;4837701;29;20488;-58
2022/11/29 06:19:15;;;;;;;61.10;35.77;;;4.90;99.90;;;;;;4843605;29;20503;-59
2022/11/29 06:21:51;;;;;;;66.00;36.67;;;4.90;99.90;;;;;;4841496;29;20476;-59
2022/11/29 06:24:37;;;;;;;58.97;35.47;;;4.90;99.90;;;;;;4833083;29;20486;-58
2022/11/29 06:27:29;;;;;;;60.07;34.53;;;4.90;99.90;;;;;;4839304;29;20987;-57
2022/11/29 06:30:05;;;;;;;60.40;35.47;;;4.90;99.90;;;;;;4837680;29;20499;-59
2022/11/29 06:32:43;;;;;;;63.10;36.03;;;4.90;99.90;;;;;;4840027;29;20491;-58
2022/11/29 06:35:33;;;;;;;65.13;35.17;;;4.80;99.90;;;;;;4832621;29;20488;-58
2022/11/29 06:38:06;;;;;;;62.37;33.97;;;5.00;99.90;;;;;;4834373;29;20480;-58
2022/11/29 06:40:35;;;;;;;67.10;37.43;;;4.90;99.90;;;;;;4842094;29;20878;-59
2022/11/29 06:43:03;;;;;;;62.40;37.13;;;4.90;99.90;;;;;;4842765;29;20504;-59
2022/11/29 06:45:32;;;;;;;68.43;37.53;;;4.90;99.90;;;;;;4840704;29;20534;-58
2022/11/29 06:48:03;;;;;;;66.63;37.93;;;4.90;99.90;;;;;;4841785;29;21215;-59
2022/11/29 06:50:40;;;;;;;65.33;35.80;;;4.90;99.90;;;;;;4847956;29;21003;-58
2022/11/29 06:53:16;;;;;;;67.13;36.90;;;5.00;99.90;;;;;;4847730;29;20471;-58
2022/11/29 06:55:57;;;;;;;66.40;37.27;;;4.90;99.90;;;;;;4840125;29;20472;-58
2022/11/29 06:58:37;;;;;;;62.07;36.03;;;4.90;99.90;;;;;;4835503;29;20490;-58
2022/11/29 07:01:16;;;;;;;62.33;35.83;;;5.00;99.90;;;;;;4844625;29;20488;-58
2022/11/29 07:04:02;;;;;;;60.27;35.43;;;4.90;99.90;;;;;;4839382;29;20551;-58
2022/11/29 07:06:33;;;;;;;61.17;36.50;;;4.80;99.90;;;;;;4841031;29;20470;-58
2022/11/29 07:09:10;;;;;;;70.47;37.27;;;4.80;99.90;;;;;;4838469;29;20479;-58
2022/11/29 07:11:39;;;;;;;70.43;37.30;;;5.00;99.90;;;;;;4840869;29;20475;-58
2022/11/29 07:14:08;;;;;;;66.93;37.47;;;5.10;99.90;;;;;;4836056;29;20490;-58
2022/11/29 07:16:44;;;;;;;66.50;35.87;;;5.00;99.90;;;;;;4836102;29;20825;-58
2022/11/29 07:19:18;;;;;;;63.87;37.37;;;5.00;99.90;;;;;;4842245;29;20512;-59
2022/11/29 07:21:58;;;;;;;64.23;35.40;;;4.90;99.90;;;;;;4839983;29;20487;-59
2022/11/29 07:24:38;;;;;;;68.50;37.87;;;4.90;99.90;;;;;;4845683;29;20475;-58
2022/11/29 07:27:14;;;;;;;70.50;36.53;;;4.80;99.90;;;;;;4837026;29;20479;-59
2022/11/29 07:29:51;;;;;;;61.23;36.63;;;4.80;99.90;;;;;;4839973;29;20480;-59
2022/11/29 07:32:28;;;;;;;64.93;35.93;;;4.80;99.90;;;;;;4838150;29;20483;-62
2022/11/29 07:35:08;;;;;;;66.60;35.57;;;4.80;99.90;;;;;;4835656;29;20538;-63
2022/11/29 07:37:49;;;;;;;66.23;36.20;;;5.20;99.90;;;;;;4830965;29;21016;-62
2022/11/29 07:40:24;;;;;;;59.37;36.20;;;5.20;99.90;;;;;;4832866;29;20629;-62
2022/11/29 07:43:13;;;;;;;65.67;35.37;;;5.00;99.90;;;;;;4838977;29;20711;-61
2022/11/29 07:45:41;;;;;;;65.70;35.37;;;5.00;99.90;;;;;;4832298;29;20480;-62
2022/11/29 07:48:11;;;;;;;63.93;35.83;;;5.00;99.90;;;;;;4828928;29;20482;-61
2022/11/29 07:50:40;;;;;;;61.80;35.20;;;5.00;99.90;;;;;;4838833;29;20514;-61
2022/11/29 07:53:16;;;;;;;63.13;36.37;;;4.90;99.90;;;;;;4825723;29;20298;-61
2022/11/29 07:55:45;;;;;;;63.03;35.03;;;5.00;99.90;;;;;;4827094;29;20470;-61
2022/11/29 07:58:14;;;;;;;67.80;37.17;;;5.00;99.90;;;;;;4827867;29;20481;-61
2022/11/29 08:00:43;;;;;;;66.83;38.07;;;5.00;99.90;;;;;;4828078;29;20291;-61
2022/11/29 08:03:12;;;;;;;65.13;36.00;;;4.90;99.90;;;;;;4830325;29;20469;-61
2022/11/29 08:05:45;;;;;;;69.17;35.37;;;4.90;99.90;;;;;;4846498;29;20247;-60
2022/11/29 08:08:15;;;;;;;66.00;37.13;;;4.90;99.90;;;;;;4845370;29;20286;-61
2022/11/29 08:10:43;;;;;;;61.53;36.73;;;5.00;99.90;;;;;;4843249;29;20231;-61
2022/11/29 08:13:11;;;;;;;65.23;35.77;;;5.00;99.90;;;;;;4846259;29;20837;-61
2022/11/29 08:15:44;;;;;;;57.90;32.40;;;5.00;99.90;;;;;;4845769;29;20490;-60
2022/11/29 08:18:12;;;;;;;66.17;37.73;;;5.10;99.90;;;;;;4844845;29;20589;-61
2022/11/29 08:20:41;;;;;;;65.07;37.67;;;5.10;99.90;;;;;;4843694;29;20510;-60
2022/11/29 08:23:11;;;;;;;63.23;37.20;;;5.10;99.90;;;;;;4848490;29;21187;-59
2022/11/29 08:25:41;;;;;;;66.03;38.07;;;5.10;99.90;;;;;;4844161;29;20994;-60
2022/11/29 08:28:09;;;;;;;62.03;33.73;;;5.10;99.90;;;;;;4846573;29;20476;-59
2022/11/29 08:30:37;;;;;;;64.03;37.00;;;5.10;99.90;;;;;;4842712;29;20540;-61
2022/11/29 08:33:05;;;;;;;67.53;36.47;;;5.10;99.90;;;;;;4843872;29;20242;-60
2022/11/29 08:35:35;;;;;;;73.70;39.73;;;5.00;99.90;;;;;;4829541;29;20281;-61
2022/11/29 08:38:03;;;;;;;72.90;37.60;;;5.00;99.90;;;;;;4828743;29;20494;-62
2022/11/29 08:40:31;;;;;;;69.30;39.10;;;5.00;99.90;;;;;;4828875;29;20720;-61
2022/11/29 08:43:01;;;;;;;69.90;39.17;;;4.90;99.90;;;;;;4827388;29;20499;-60
2022/11/29 08:45:29;;;;;;;67.87;38.53;;;4.90;99.90;;;;;;4828774;29;20495;-61
2022/11/29 08:47:57;;;;;;;63.33;37.17;;;4.90;99.90;;;;;;4829722;29;20483;-61
2022/11/29 08:50:25;;;;;;;69.40;37.43;;;4.90;99.90;;;;;;4828813;29;20481;-61
2022/11/29 08:55:41;;;;;;;69.77;38.73;;;5.00;99.90;;;;;;4828877;29;20592;-61
2022/11/29 08:58:13;;;;;;;65.10;37.53;;;4.90;99.90;;;;;;4827291;29;20659;-61
2022/11/29 09:00:44;;;;;;;64.53;36.23;;;4.90;99.90;;;;;;4827197;29;20254;-61
2022/11/29 09:06:04;;;;;;;65.37;37.80;;;5.00;99.90;;;;;;4829792;29;20497;-61
2022/11/29 09:08:39;;;;;;;65.40;39.50;;;5.00;99.90;;;;;;4843661;29;20524;-61
2022/11/29 09:11:11;;;;;;;67.47;39.13;;;5.00;99.90;;;;;;4843970;29;20475;-61
2022/11/29 09:13:42;;;;;;;67.23;37.67;;;4.90;99.90;;;;;;4844525;29;20721;-59
2022/11/29 09:16:12;;;;;;;63.17;36.50;;;4.90;99.90;;;;;;4846564;29;20241;-61
2022/11/29 09:18:42;;;;;;;67.60;37.40;;;5.00;99.90;;;;;;4843314;29;21161;-59
2022/11/29 09:21:17;;;;;;;69.13;38.57;;;5.00;99.90;;;;;;4842333;29;20511;-60
2022/11/29 09:23:46;;;;;;;66.23;37.63;;;5.00;99.90;;;;;;4842908;29;20242;-59
2022/11/29 09:26:17;;;;;;;59.30;34.13;;;5.00;99.90;;;;;;4841454;29;20560;-59
2022/11/29 09:28:48;;;;;;;65.43;37.27;;;5.00;99.90;;;;;;4841834;29;20240;-58
2022/11/29 09:31:16;;;;;;;68.83;38.10;;;5.10;99.90;;;;;;4841684;29;20603;-61
2022/11/29 09:33:45;;;;;;;66.13;37.47;;;5.00;99.90;;;;;;4842454;29;20335;-59
2022/11/29 09:36:13;;;;;;;68.83;39.57;;;5.10;99.90;;;;;;4841874;29;20246;-60
2022/11/29 09:38:41;;;;;;;67.57;38.40;;;5.00;99.90;;;;;;4841994;29;20250;-61
2022/11/29 09:41:30;;;;;;;67.53;39.20;;;5.00;99.90;;;;;;4842663;29;20251;-58
2022/11/29 09:44:05;;;;;;;70.00;39.60;;;5.00;99.90;;;;;;4841017;29;20258;-61
2022/11/29 09:46:40;;;;;;;72.23;40.17;;;5.10;99.90;;;;;;4842352;29;20484;-61
2022/11/29 09:49:23;;;;;;;68.77;39.10;;;5.00;99.90;;;;;;4828262;29;20238;-61
2022/11/29 09:52:02;;;;;;;64.20;36.23;;;5.10;99.90;;;;;;4827084;29;20833;-60
2022/11/29 09:54:40;;;;;;;58.60;34.67;;;5.20;99.90;;;;;;4828012;29;20671;-61
2022/11/29 09:57:09;;;;;;;72.07;39.90;;;5.30;99.90;;;;;;4825296;29;20229;-61
2022/11/29 09:59:42;;;;;;;67.03;38.60;;;5.20;99.90;;;;;;4824020;29;20246;-60
2022/11/29 10:02:17;;;;;;;63.77;37.80;;;5.20;99.90;;;;;;4827857;29;20288;-61
2022/11/29 10:04:53;;;;;;;64.87;37.50;;;5.10;99.90;;;;;;4830579;29;20366;-60
2022/11/29 10:07:26;;;;;;;60.60;36.40;;;5.10;99.90;;;;;;4828844;29;20548;-56
2022/11/29 10:09:58;;;;;;;66.20;37.83;;;5.10;99.90;;;;;;4825346;29;20690;-60
2022/11/29 10:12:33;;;;;;;68.67;39.67;;;5.20;99.90;;;;;;4824482;29;20993;-61
2022/11/29 10:15:12;;;;;;;60.20;37.33;;;5.20;99.90;;;;;;4824334;29;20308;-61
2022/11/29 10:17:44;;;;;;;65.93;38.37;;;5.20;99.90;;;;;;4838223;29;21030;-61
2022/11/29 10:20:16;;;;;;;65.80;38.67;;;5.20;99.90;;;;;;4840227;29;20884;-60
2022/11/29 10:22:52;;;;;;;59.13;36.23;;;5.20;99.90;;;;;;4841944;29;20238;-61
2022/11/29 10:25:24;;;;;;;63.13;37.83;;;5.20;99.90;;;;;;4842509;29;20479;-60
2022/11/29 10:27:53;;;;;;;62.87;38.17;;;5.10;99.90;;;;;;4841998;29;20257;-61
2022/11/29 10:30:22;;;;;;;57.20;33.97;;;5.20;99.90;;;;;;4840720;29;20469;-61
2022/11/29 10:33:00;;;;;;;67.80;40.73;;;5.30;99.90;;;;;;4843376;29;20878;-61
2022/11/29 10:35:28;;;;;;;62.47;36.43;;;5.30;99.90;;;;;;4842925;29;20238;-61
2022/11/29 10:38:00;;;;;;;70.50;38.83;;;5.30;99.90;;;;;;4839376;29;20822;-60
2022/11/29 10:40:53;;;;;;;64.40;38.17;;;5.20;99.90;;;;;;4839517;29;20502;-61
2022/11/29 10:43:23;;;;;;;72.13;39.90;;;5.20;99.90;;;;;;4842704;29;20502;-61
2022/11/29 10:45:55;;;;;;;65.83;38.00;;;5.20;99.90;;;;;;4842189;29;20687;-60
2022/11/29 10:48:27;;;;;;;64.63;36.83;;;5.20;99.90;;;;;;4844100;29;20633;-58
2022/11/29 10:50:55;;;;;;;63.50;36.43;;;5.20;99.90;;;;;;4840130;29;20482;-61
2022/11/29 10:53:26;;;;;;;80.37;41.97;;;5.30;99.90;;;;;;4841848;29;20487;-61
2022/11/29 10:56:00;;;;;;;67.43;38.60;;;5.20;99.90;;;;;;4840120;29;20476;-61
2022/11/29 10:58:30;;;;;;;72.30;40.77;;;5.30;99.90;;;;;;4835589;29;20479;-58
2022/11/29 11:01:01;;;;;;;68.67;41.73;;;5.40;99.90;;;;;;4824789;29;20540;-61
2022/11/29 11:03:35;;;;;;;71.87;41.23;;;5.40;99.90;;;;;;4825698;29;20850;-61
2022/11/29 11:06:11;;;;;;;71.97;42.20;;;5.40;99.90;;;;;;4823925;29;20239;-57
2022/11/29 11:08:42;;;;;;;71.80;42.60;;;5.30;99.90;;;;;;4824462;29;20480;-59
2022/11/29 11:11:11;;;;;;;69.23;40.53;;;5.40;99.90;;;;;;4824245;29;20484;-60
2022/11/29 11:13:40;;;;;;;72.17;41.50;;;5.40;99.90;;;;;;4824346;29;20484;-61
2022/11/29 11:16:16;;;;;;;68.47;39.03;;;5.30;99.90;;;;;;4841360;29;20490;-61
2022/11/29 11:18:46;;;;;;;63.30;38.97;;;5.30;99.90;;;;;;4840816;29;20261;-60
2022/11/29 11:21:15;;;;;;;68.23;39.40;;;5.30;99.90;;;;;;4839881;29;20512;-61
2022/11/29 11:23:52;;;;;;;65.90;39.30;;;5.30;99.90;;;;;;4840160;29;20480;-61
2022/11/29 11:26:21;;;;;;;69.90;41.43;;;5.40;99.90;;;;;;4841032;29;20238;-61
2022/11/29 11:28:54;;;;;;;69.30;41.03;;;5.40;99.90;;;;;;4840406;29;20222;-61
2022/11/29 11:31:33;;;;;;;63.93;40.07;;;5.40;99.90;;;;;;4838284;29;20523;-62
2022/11/29 11:34:25;;;;;;;65.77;39.77;;;5.40;99.90;;;;;;4823945;29;20599;-61
2022/11/29 11:36:54;;;;;;;67.20;40.67;;;5.50;99.90;;;;;;4823447;29;20485;-59
2022/11/29 11:39:23;;;;;;;66.30;40.73;;;5.40;99.90;;;;;;4821891;29;20568;-60
2022/11/29 11:44:48;;;;;;;57.80;36.80;;;5.40;99.90;;;;;;4820538;29;20499;-58
2022/11/29 11:47:20;;;;;;;65.67;39.77;;;5.50;99.90;;;;;;4820506;29;20249;-58
2022/11/29 11:49:55;;;;;;;63.43;37.97;;;5.50;99.90;;;;;;4821149;29;20777;-60
2022/11/29 11:52:27;;;;;;;61.60;38.30;;;5.50;99.90;;;;;;4821842;29;20620;-61
2022/11/29 11:54:59;;;;;;;64.83;39.00;;;5.50;99.90;;;;;;4821080;29;20493;-61
2022/11/29 11:57:28;;;;;;;62.10;39.67;;;5.50;99.90;;;;;;4820130;29;20495;-59
2022/11/29 11:59:58;;;;;;;55.57;34.57;;;5.40;99.90;;;;;;4820396;29;20249;-58
2022/11/29 12:02:40;;;;;;;66.57;39.77;;;5.40;99.90;;;;;;4819193;29;21379;-60
2022/11/29 12:05:13;;;;;;;64.77;40.23;;;5.40;99.90;;;;;;4821120;29;21024;-60
2022/11/29 12:07:46;;;;;;;66.20;41.13;;;5.50;99.90;;;;;;4819784;29;20253;-60
2022/11/29 12:10:38;;;;;;;74.23;42.77;;;5.40;99.90;;;;;;4818449;29;20826;-61
2022/11/29 12:13:14;;;;;;;62.93;37.57;;;5.40;99.90;;;;;;4819051;29;20243;-61
2022/11/29 12:15:47;;;;;;;62.93;39.30;;;5.40;99.90;;;;;;4820201;29;20242;-60
2022/11/29 12:18:24;;;;;;;70.53;41.33;;;5.40;99.90;;;;;;4828570;29;20241;-59
2022/11/29 12:20:56;;;;;;;68.00;40.73;;;5.50;99.90;;;;;;4818776;29;20499;-58
2022/11/29 12:23:35;;;;;;;64.70;38.97;;;5.50;99.90;;;;;;4820942;29;20484;-58
2022/11/29 12:26:10;;;;;;;63.57;40.07;;;5.40;99.90;;;;;;4821294;29;21053;-59
2022/11/29 12:28:47;;;;;;;69.37;42.07;;;5.50;99.90;;;;;;4819083;29;20484;-60
2022/11/29 12:31:30;;;;;;;67.63;41.90;;;5.40;99.90;;;;;;4818118;29;20488;-60
2022/11/29 12:34:17;;;;;;;67.80;40.07;;;5.40;99.90;;;;;;4820176;29;20244;-59
2022/11/29 12:36:55;;;;;;;65.47;40.53;;;5.40;99.90;;;;;;4824673;29;21171;-58
2022/11/29 12:39:49;;;;;;;67.77;41.97;;;5.40;99.90;;;;;;4821667;29;20497;-57
2022/11/29 12:42:26;;;;;;;71.73;40.47;;;5.40;99.90;;;;;;4820800;29;20859;-61
2022/11/29 12:45:01;;;;;;;64.17;38.60;;;5.50;99.90;;;;;;4836414;29;20250;-61
2022/11/29 12:47:41;;;;;;;69.87;41.47;;;5.50;99.90;;;;;;4839985;29;20480;-60
2022/11/29 12:50:26;;;;;;;67.03;40.97;;;5.40;99.90;;;;;;4836001;29;20240;-61
2022/11/29 12:53:07;;;;;;;61.97;37.67;;;5.40;99.90;;;;;;4822724;29;20224;-59
2022/11/29 12:55:48;;;;;;;68.47;42.27;;;5.40;99.90;;;;;;4824525;29;20475;-60
2022/11/29 12:58:26;;;;;;;67.97;42.50;;;5.30;99.90;;;;;;4823938;29;20496;-60
2022/11/29 13:01:03;;;;;;;70.70;43.93;;;5.40;99.90;;;;;;4822395;29;20614;-61
2022/11/29 13:03:44;;;;;;;64.77;39.77;;;5.40;99.90;;;;;;4822321;29;20514;-61
2022/11/29 13:06:23;;;;;;;65.63;40.67;;;5.40;99.90;;;;;;4826982;29;20321;-60
2022/11/29 13:09:14;;;;;;;67.90;40.40;;;5.40;99.90;;;;;;4836493;29;21003;-61
2022/11/29 13:11:48;;;;;;;65.20;40.67;;;5.50;99.90;;;;;;4836976;29;20234;-61
2022/11/29 13:14:23;;;;;;;62.13;37.77;;;5.50;99.90;;;;;;4838203;29;20241;-59
2022/11/29 13:17:26;;;;;;;67.20;41.33;;;5.50;99.90;;;;;;4838209;29;20704;-59
2022/11/29 13:19:58;;;;;;;65.13;41.10;;;5.40;99.90;;;;;;4839057;29;20546;-61
2022/11/29 13:22:34;;;;;;;67.20;41.83;;;5.40;99.90;;;;;;4839605;29;20239;-60
2022/11/29 13:25:12;;;;;;;63.97;40.87;;;5.30;99.90;;;;;;4838408;29;20253;-61
2022/11/29 13:27:44;;;;;;;61.73;38.10;;;5.30;99.90;;;;;;4837262;29;20321;-58
2022/11/29 13:30:15;;;;;;;67.93;41.70;;;5.30;99.90;;;;;;4836041;29;20584;-61
2022/11/29 13:32:51;;;;;;;62.10;40.07;;;5.30;99.90;;;;;;4836879;29;20482;-61